Atlantic - Newfoundland: Past 24 Hour Conditions

 

St. John's Int'l Airport

07:30 PM NDT 27 May 2015
Disclaimer

This table is a summary of hourly weather conditions for the past 24 hours.
Please note that these observations might not always be representative of weather conditions over their associated marine area.

Date / Time
(NDT)
Wind(knots) Conditions Visibility(km) Pressure(kPa) Air tempC) Relative humidity(%) Dew pointC)
27 May 2015
19:30 WSW 11 gust 19 Cloudy 24 102.1 10 94 9
18:30 W 14 gust 19 Cloudy 24 102.1 11 92 10
17:30 W 18 gust 25 Mostly Cloudy 24 102.1 13 85 10
16:30 WSW 20 gust 25 Mostly Cloudy 24 102.0 13 85 11
15:30 WSW 19 Mostly Cloudy 24 102.0 13 87 11
14:30 WSW 23 Mostly Cloudy 24 102.0 15 79 11
13:30 WSW 19 gust 29 Mostly Cloudy 24 102.0 14 85 12
12:30 WSW 22 gust 28 Mostly Cloudy 24 102.1 14 84 11
11:30 WSW 26 gust 32 Mostly Cloudy 19 102.0 13 88 11
10:30 WSW 25 gust 34 Cloudy 19 102.1 13 90 11
9:30 WSW 20 gust 34 Mostly Cloudy 24 102.1 13 92 12
8:30 SW 25 gust 36 Light Drizzle 24 102.1 12 95 12
7:30 SW 22 gust 40 Light Rain 16 102.0 12 95 11
6:30 SW 23 gust 39 Rain 10 102.1 12 94 11
5:30 SW 27 gust 39 Light Rain 19 102.0 13 95 12
4:30 SW 25 gust 38 Light Rain 24 102.1 13 89 11
3:30 SW 25 gust 39 Light Rain 24 102.1 13 92 12
2:30 SW 26 gust 40 Light Rain 24 102.2 14 93 12
1:30 SW 21 gust 28 Light Rain 24 102.3 13 94 12
0:30 SW 15 gust 22 Light Rain 24 102.4 13 93 12
26 May 2015
23:30 WSW 19 Mostly Cloudy 24 102.4 13 84 11
22:30 WSW 17 gust 24 Mostly Cloudy 24 102.5 12 91 10
21:30 WSW 19 gust 25 Mostly Cloudy 24 102.5 15 88 13
20:30 WSW 15 gust 24 Mostly Cloudy 24 102.4 15 72 10
19:30 WSW 18 gust 24 Mostly Cloudy 24 102.4 15 65 9

Zoom-in to make a selection

Map of Atlantic - Newfoundland marine weather areas Southwestern Grand Banks - 44138 Banquereau - 44139 Tail of the Bank - 44140 Nickerson Bank - 44251 Northeast Burgeo Bank - 44255 Blanc-Sablon Airport Cap Whittle Chevery Natashquan Airport Heath Point Miscou Island Grand Étang Ingonish Beach North Mountain St.Paul Island J.A. Douglas McCurdy Sydney Airport Charlottetown Airport East Point North Cape Argentia Bonavista Burgeo Cape Race Corner Brook Daniel's Harbour Englee Ferolle Point La Scie Port aux Basques Rocky Harbour Sagona Island St. Anthony Airport St. John's Int'l Airport St. Lawrence Stephenville Airport Twillingate Winterland Wreckhouse Cartwright Airport Mary's Harbour Grates Cove Pool's Island Marticot Island Long Pond Îles de la Madeleine Airport
Legend:
buoy Buoy
land station Land Station

Atlantic - Newfoundland Area

Another Region

What we are doing

Date modified: